createdAt,value
2019-03-11T00:00:17.963Z,6.72
2019-03-11T00:02:46.426Z,13.38
2019-03-11T00:05:14.805Z,8.70
2019-03-11T00:07:44.952Z,8.73
2019-03-11T00:10:13.457Z,9.83
2019-03-11T00:12:41.880Z,8.73
2019-03-11T00:15:10.257Z,17.25
2019-03-11T00:17:38.876Z,21.35
2019-03-11T00:20:09.265Z,10.32
2019-03-11T00:22:37.680Z,13.30
2019-03-11T00:25:07.085Z,21.90
2019-03-11T00:27:35.533Z,20.32
2019-03-11T00:30:11.933Z,17.55
2019-03-11T00:32:40.311Z,16.77
2019-03-11T00:35:08.775Z,24.27
2019-03-11T00:37:37.206Z,26.82
2019-03-11T00:40:11.378Z,20.60
2019-03-11T00:42:39.867Z,21.52
2019-03-11T00:45:10.814Z,23.77
2019-03-11T00:47:39.235Z,20.95
2019-03-11T00:50:09.917Z,23.52
2019-03-11T00:52:38.353Z,22.82
2019-03-11T00:55:09.070Z,23.42
2019-03-11T00:57:37.523Z,19.77
2019-03-11T01:00:09.189Z,19.05
2019-03-11T01:02:37.585Z,18.00
2019-03-11T01:05:06.025Z,17.07
2019-03-11T01:07:34.465Z,16.75
2019-03-11T01:10:03.366Z,18.57
2019-03-11T01:12:31.785Z,19.90
2019-03-11T01:15:00.360Z,23.47
2019-03-11T01:17:28.865Z,20.82
2019-03-11T01:19:57.354Z,16.55
2019-03-11T01:22:25.786Z,18.37
2019-03-11T01:24:54.316Z,20.45
2019-03-11T01:27:22.736Z,17.25
2019-03-11T01:29:51.180Z,21.30
2019-03-11T01:32:19.578Z,15.70
2019-03-11T01:34:48.010Z,17.50
2019-03-11T01:37:16.489Z,13.95
2019-03-11T01:39:44.855Z,19.12
2019-03-11T01:42:13.248Z,13.65
2019-03-11T01:44:41.642Z,13.28
2019-03-11T01:47:10.129Z,14.33
2019-03-11T01:49:38.698Z,20.45
2019-03-11T01:52:07.181Z,12.70
2019-03-11T01:54:35.612Z,10.13
2019-03-11T01:57:04.111Z,8.93
2019-03-11T01:59:32.602Z,10.15
2019-03-11T02:02:01.054Z,12.43
2019-03-11T02:04:29.473Z,26.70
2019-03-11T02:06:57.890Z,29.42
2019-03-11T02:09:26.322Z,17.80
2019-03-11T02:11:54.735Z,17.92
2019-03-11T02:14:23.313Z,19.50
2019-03-11T02:16:51.723Z,15.23
2019-03-11T02:19:20.102Z,13.40
2019-03-11T02:21:48.561Z,9.10
2019-03-11T02:24:16.986Z,10.28
2019-03-11T02:26:45.418Z,10.32
2019-03-11T02:29:13.838Z,10.25
2019-03-11T02:31:42.254Z,11.35
2019-03-11T02:34:10.643Z,10.28
2019-03-11T02:36:39.190Z,10.82
2019-03-11T02:39:07.720Z,11.35
2019-03-11T02:41:36.126Z,11.20
2019-03-11T02:44:04.613Z,9.25
2019-03-11T02:46:33.165Z,8.25
2019-03-11T02:49:01.585Z,14.20
2019-03-11T02:51:30.106Z,10.78
2019-03-11T02:53:58.517Z,9.80
2019-03-11T02:56:26.902Z,11.30
2019-03-11T02:58:55.464Z,8.48
2019-03-11T03:01:34.723Z,11.97
2019-03-11T03:04:04.790Z,7.50
2019-03-11T03:06:33.295Z,11.68
2019-03-11T03:09:01.734Z,6.33
2019-03-11T03:11:30.123Z,5.12
2019-03-11T03:13:58.539Z,5.30
2019-03-11T03:16:26.959Z,8.23
2019-03-11T03:18:55.529Z,7.83
2019-03-11T03:21:24.022Z,8.68
2019-03-11T03:23:52.639Z,11.10
2019-03-11T03:26:21.307Z,10.00
2019-03-11T03:28:49.758Z,9.40
2019-03-11T03:31:18.109Z,15.43
2019-03-11T03:33:46.577Z,7.03
2019-03-11T03:36:14.959Z,6.90
2019-03-11T03:38:43.470Z,6.47
2019-03-11T03:41:11.878Z,5.97
2019-03-11T03:43:40.246Z,5.47
2019-03-11T03:46:18.563Z,4.28
2019-03-11T03:48:39.156Z,5.60
2019-03-11T03:51:07.707Z,5.25
2019-03-11T03:53:36.128Z,4.65
2019-03-11T03:56:04.739Z,6.60
2019-03-11T03:58:33.246Z,4.97
2019-03-11T04:01:01.649Z,6.22
2019-03-11T04:03:30.111Z,6.17
2019-03-11T04:05:58.529Z,6.87
2019-03-11T04:08:26.950Z,4.58
2019-03-11T04:10:55.403Z,6.00
2019-03-11T04:13:23.850Z,6.55
2019-03-11T04:15:52.253Z,6.10
2019-03-11T04:18:20.647Z,4.90
2019-03-11T04:20:49.039Z,6.95
2019-03-11T04:23:17.461Z,5.78
2019-03-11T04:25:46.000Z,6.08
2019-03-11T04:28:14.502Z,5.28
2019-03-11T04:30:42.922Z,5.05
2019-03-11T04:33:11.383Z,6.65
2019-03-11T04:35:39.768Z,10.18
2019-03-11T04:38:08.247Z,11.45
2019-03-11T04:40:36.707Z,10.25
2019-03-11T04:43:05.085Z,8.63
2019-03-11T04:45:33.534Z,9.98
2019-03-11T04:48:01.975Z,12.23
2019-03-11T04:50:30.556Z,11.85
2019-03-11T04:52:59.056Z,14.25
2019-03-11T04:55:27.468Z,9.98
2019-03-11T04:57:56.385Z,12.82
2019-03-11T05:00:29.696Z,9.83
2019-03-11T05:02:58.199Z,10.32
2019-03-11T05:05:26.639Z,11.57
2019-03-11T05:07:55.032Z,14.68
2019-03-11T05:10:23.453Z,19.42
2019-03-11T05:12:51.847Z,32.40
2019-03-11T05:15:20.277Z,25.57
2019-03-11T05:17:48.996Z,37.55
2019-03-11T05:20:17.582Z,33.67
2019-03-11T05:22:46.052Z,36.68
2019-03-11T05:25:15.301Z,42.17
2019-03-11T05:27:43.874Z,64.15
2019-03-11T05:30:18.424Z,43.13
2019-03-11T05:32:46.901Z,44.40
2019-03-11T05:35:15.510Z,37.58
2019-03-11T05:37:43.880Z,23.05
2019-03-11T05:40:13.662Z,24.90
2019-03-11T05:42:42.043Z,17.65
2019-03-11T05:45:12.502Z,21.35
2019-03-11T05:47:40.962Z,22.80
2019-03-11T05:50:14.243Z,16.77
2019-03-11T05:52:42.661Z,11.55
2019-03-11T05:55:12.043Z,12.07
2019-03-11T05:57:40.438Z,13.45
2019-03-11T06:00:19.004Z,11.35
2019-03-11T06:02:47.341Z,9.10
2019-03-11T06:05:15.743Z,10.63
2019-03-11T06:07:44.284Z,12.88
2019-03-11T06:10:14.154Z,13.53
2019-03-11T06:12:42.612Z,14.83
2019-03-11T06:15:12.914Z,9.60
2019-03-11T06:17:41.355Z,9.43
2019-03-11T06:20:22.156Z,10.38
2019-03-11T06:22:50.753Z,7.62
2019-03-11T06:25:19.230Z,11.20
2019-03-11T06:27:47.652Z,10.18
2019-03-11T06:30:16.108Z,9.38
2019-03-11T06:32:44.640Z,14.45
2019-03-11T06:35:13.210Z,13.70
2019-03-11T06:37:41.614Z,12.03
2019-03-11T06:40:11.673Z,15.05
2019-03-11T06:42:40.070Z,17.62
2019-03-11T06:45:10.235Z,14.45
2019-03-11T06:47:38.677Z,14.80
2019-03-11T06:50:12.139Z,14.58
2019-03-11T06:52:40.527Z,14.55
2019-03-11T06:55:10.060Z,13.85
2019-03-11T06:57:38.598Z,17.55
2019-03-11T07:00:18.330Z,20.15
2019-03-11T07:02:46.781Z,14.73
2019-03-11T07:05:20.289Z,11.97
2019-03-11T07:07:45.303Z,14.95
2019-03-11T07:10:14.982Z,19.77
2019-03-11T07:12:43.413Z,14.45
2019-03-11T07:15:14.156Z,13.75
2019-03-11T07:17:42.536Z,13.48
2019-03-11T07:20:13.903Z,12.75
2019-03-11T07:22:48.603Z,9.90
2019-03-11T07:25:17.066Z,13.10
2019-03-11T07:27:45.694Z,15.70
2019-03-11T07:30:20.481Z,14.58
2019-03-11T07:32:48.933Z,14.75
2019-03-11T07:35:17.546Z,13.88
2019-03-11T07:37:46.072Z,13.32
2019-03-11T07:40:15.647Z,13.55
2019-03-11T07:42:44.166Z,10.23
2019-03-11T07:45:14.638Z,11.40
2019-03-11T07:47:43.033Z,8.83
2019-03-11T07:50:13.561Z,8.10
2019-03-11T07:52:42.282Z,9.63
2019-03-11T07:55:13.181Z,12.88
2019-03-11T07:57:41.776Z,10.05
2019-03-11T08:00:17.582Z,9.65
2019-03-11T08:02:46.009Z,12.80
2019-03-11T08:05:14.476Z,8.58
2019-03-11T08:07:42.886Z,7.25
2019-03-11T08:10:14.012Z,11.38
2019-03-11T08:12:42.478Z,8.38
2019-03-11T08:15:14.858Z,8.80
2019-03-11T08:17:43.431Z,11.63
2019-03-11T08:20:13.161Z,7.95
2019-03-11T08:22:41.674Z,10.30
2019-03-11T08:25:12.457Z,9.40
2019-03-11T08:27:40.896Z,12.53
2019-03-11T08:30:15.544Z,10.13
2019-03-11T08:32:43.963Z,13.50
2019-03-11T08:35:12.428Z,10.38
2019-03-11T08:37:40.838Z,9.00
2019-03-11T08:40:14.532Z,8.85
2019-03-11T08:42:42.909Z,19.73
2019-03-11T08:45:16.367Z,9.60
2019-03-11T08:47:44.756Z,10.50
2019-03-11T08:50:16.453Z,9.45
2019-03-11T08:52:44.852Z,7.30
2019-03-11T08:55:13.516Z,6.58
2019-03-11T08:57:41.994Z,8.68
2019-03-11T09:00:16.667Z,5.35
2019-03-11T09:02:46.122Z,8.55
2019-03-11T09:05:14.540Z,6.62
2019-03-11T09:07:43.069Z,6.83
2019-03-11T09:10:15.383Z,3.40
2019-03-11T09:12:43.791Z,4.10
2019-03-11T09:15:13.944Z,5.75
2019-03-11T09:17:42.380Z,7.92
2019-03-11T09:20:15.589Z,5.78
2019-03-11T09:22:44.066Z,7.17
2019-03-11T09:25:20.426Z,4.05
2019-03-11T09:27:50.849Z,6.72
2019-03-11T09:30:21.340Z,6.22
2019-03-11T09:32:49.747Z,8.33
2019-03-11T09:35:18.293Z,9.80
2019-03-11T09:37:46.730Z,4.42
2019-03-11T09:40:19.618Z,4.20
2019-03-11T09:42:48.119Z,4.05
2019-03-11T09:45:18.759Z,6.33
2019-03-11T09:47:47.561Z,4.78
2019-03-11T09:50:16.278Z,5.03
2019-03-11T09:52:44.726Z,3.95
2019-03-11T09:55:16.364Z,4.75
2019-03-11T09:57:44.779Z,9.45
2019-03-11T10:00:22.096Z,4.25
2019-03-11T10:02:52.835Z,4.95
2019-03-11T10:05:20.904Z,5.65
2019-03-11T10:07:49.330Z,9.05
2019-03-11T10:10:22.775Z,10.63
2019-03-11T10:12:51.286Z,7.30
2019-03-11T10:15:23.282Z,6.47
2019-03-11T10:17:51.682Z,9.20
2019-03-11T10:20:20.728Z,13.88
2019-03-11T10:22:49.368Z,6.70
2019-03-11T10:25:18.348Z,35.65
2019-03-11T10:27:46.753Z,12.88
2019-03-11T10:30:19.099Z,7.03
2019-03-11T10:32:47.627Z,13.88
2019-03-11T10:35:31.513Z,5.20
2019-03-11T10:37:47.186Z,5.03
2019-03-11T10:40:25.847Z,3.05
2019-03-11T10:42:54.329Z,3.22
2019-03-11T10:45:31.187Z,9.38
2019-03-11T10:47:52.924Z,3.12
2019-03-11T10:50:21.563Z,4.28
2019-03-11T10:52:50.056Z,8.83
2019-03-11T10:55:23.883Z,3.30
2019-03-11T10:57:52.552Z,8.03
2019-03-11T11:00:29.318Z,7.00
2019-03-11T11:02:57.712Z,7.53
2019-03-11T11:05:26.166Z,4.30
2019-03-11T11:07:54.680Z,4.03
2019-03-11T11:10:23.086Z,6.55
2019-03-11T11:12:51.545Z,5.83
2019-03-11T11:15:26.603Z,5.12
2019-03-11T11:17:55.149Z,3.22
2019-03-11T11:20:24.088Z,7.78
2019-03-11T11:22:53.544Z,5.92
2019-03-11T11:25:25.907Z,6.50
2019-03-11T11:27:54.371Z,3.70
2019-03-11T11:30:24.139Z,3.20
2019-03-11T11:32:52.571Z,6.37
2019-03-11T11:35:21.105Z,9.68
2019-03-11T11:37:49.754Z,6.78
2019-03-11T11:40:26.266Z,11.50
2019-03-11T11:42:54.673Z,8.15
2019-03-11T11:45:25.190Z,6.67
2019-03-11T11:47:53.596Z,6.80
2019-03-11T11:50:23.162Z,6.28
2019-03-11T11:52:51.723Z,8.00
2019-03-11T11:55:21.193Z,2.98
2019-03-11T11:57:49.742Z,9.33
2019-03-11T12:00:23.762Z,6.03
2019-03-11T12:02:52.358Z,6.85
2019-03-11T12:05:20.923Z,6.05
2019-03-11T12:07:49.347Z,3.35
2019-03-11T12:10:23.876Z,11.43
2019-03-11T12:12:52.391Z,16.20
2019-03-11T12:15:20.839Z,6.50
2019-03-11T12:17:49.274Z,12.05
2019-03-11T12:20:31.489Z,10.98
2019-03-11T12:23:00.042Z,5.85
2019-03-11T12:25:28.462Z,3.02
2019-03-11T12:27:58.172Z,2.77
2019-03-11T12:30:30.675Z,3.50
2019-03-11T12:32:59.462Z,4.92
2019-03-11T12:35:28.200Z,7.50
2019-03-11T12:37:56.972Z,14.83
2019-03-11T12:40:25.311Z,15.43
2019-03-11T12:42:53.803Z,6.12
2019-03-11T12:45:23.376Z,7.47
2019-03-11T12:47:51.859Z,5.85
2019-03-11T12:50:24.674Z,5.97
2019-03-11T12:52:53.182Z,8.80
2019-03-11T12:55:21.939Z,8.60
2019-03-11T12:57:50.834Z,5.25
2019-03-11T13:00:21.234Z,3.35
2019-03-11T13:02:49.701Z,5.53
2019-03-11T13:05:18.291Z,3.52
2019-03-11T13:07:46.701Z,3.77
2019-03-11T13:10:17.361Z,5.05
2019-03-11T13:12:45.771Z,4.40
2019-03-11T13:15:15.421Z,3.85
2019-03-11T13:17:43.914Z,4.33
2019-03-11T13:20:18.281Z,3.62
2019-03-11T13:22:48.989Z,3.25
2019-03-11T13:25:17.509Z,5.33
2019-03-11T13:27:45.909Z,4.35
2019-03-11T13:30:15.251Z,6.60
2019-03-11T13:32:43.664Z,4.72
2019-03-11T13:35:12.724Z,3.62
2019-03-11T13:37:41.113Z,9.18
2019-03-11T13:40:13.834Z,4.67
2019-03-11T13:42:42.273Z,3.80
2019-03-11T13:45:15.590Z,9.98
2019-03-11T13:47:44.146Z,6.78
2019-03-11T13:50:17.421Z,7.12
2019-03-11T13:52:45.898Z,6.17
2019-03-11T13:55:15.509Z,5.08
2019-03-11T13:57:44.125Z,6.90
2019-03-11T14:00:18.276Z,5.17
2019-03-11T14:02:46.684Z,7.17
2019-03-11T14:05:15.098Z,6.60
2019-03-11T14:07:43.626Z,8.43
2019-03-11T14:10:16.056Z,4.33
2019-03-11T14:12:44.909Z,6.20
2019-03-11T14:15:17.607Z,5.62
2019-03-11T14:20:14.585Z,6.58
2019-03-11T14:22:42.986Z,5.67
2019-03-11T14:25:13.469Z,5.12
2019-03-11T14:27:41.907Z,5.80
2019-03-11T14:30:13.215Z,4.30
2019-03-11T14:32:41.702Z,9.28
2019-03-11T14:35:11.454Z,14.60
2019-03-11T14:37:39.924Z,25.55
2019-03-11T14:40:11.003Z,57.10
2019-03-11T14:42:39.419Z,53.50
2019-03-11T14:45:11.085Z,48.90
2019-03-11T14:47:39.572Z,30.90
2019-03-11T14:50:09.835Z,30.23
2019-03-11T14:52:38.255Z,45.88
2019-03-11T14:55:08.682Z,18.20
2019-03-11T14:57:37.167Z,13.10
2019-03-11T15:00:12.348Z,6.53
2019-03-11T15:02:55.893Z,9.58
2019-03-11T15:05:24.475Z,7.03
2019-03-11T15:07:52.917Z,10.63
2019-03-11T15:10:21.317Z,7.03
2019-03-11T15:12:49.738Z,10.82
2019-03-11T15:15:24.641Z,8.58
2019-03-11T15:17:53.118Z,10.15
2019-03-11T15:20:21.762Z,7.78
2019-03-11T15:22:50.350Z,7.08
2019-03-11T15:25:18.918Z,13.38
2019-03-11T15:27:47.912Z,13.03
2019-03-11T15:30:21.362Z,9.10
2019-03-11T15:32:50.019Z,26.85
2019-03-11T15:35:18.491Z,9.68
2019-03-11T15:37:46.966Z,11.85
2019-03-11T15:40:18.937Z,12.50
2019-03-11T15:42:47.447Z,10.48
2019-03-11T15:45:17.024Z,8.70
2019-03-11T15:47:45.472Z,9.90
2019-03-11T15:50:28.605Z,9.55
2019-03-11T15:52:57.190Z,13.20
2019-03-11T15:55:25.661Z,12.53
2019-03-11T15:57:54.171Z,7.15
2019-03-11T16:00:23.354Z,14.93
2019-03-11T16:02:51.740Z,15.58
2019-03-11T16:05:21.277Z,31.10
2019-03-11T16:07:50.244Z,20.45
2019-03-11T16:10:19.138Z,19.60
2019-03-11T16:12:47.671Z,14.23
2019-03-11T16:15:17.277Z,11.20
2019-03-11T16:17:45.716Z,8.48
2019-03-11T16:20:20.204Z,7.97
2019-03-11T16:22:48.938Z,6.83
2019-03-11T16:25:17.253Z,8.88
2019-03-11T16:27:45.677Z,12.37
2019-03-11T16:30:18.944Z,8.98
2019-03-11T16:32:58.435Z,9.60
2019-03-11T16:35:18.091Z,8.93
2019-03-11T16:37:46.642Z,10.40
2019-03-11T16:40:15.236Z,9.80
2019-03-11T16:42:43.701Z,12.95
2019-03-11T16:45:13.556Z,16.85
2019-03-11T16:47:41.967Z,12.75
2019-03-11T16:50:21.454Z,9.43
2019-03-11T16:52:49.860Z,12.60
2019-03-11T16:55:24.954Z,16.20
2019-03-11T16:57:53.918Z,19.40
2019-03-11T17:00:24.303Z,13.60
2019-03-11T17:02:52.734Z,8.00
2019-03-11T17:05:21.214Z,12.50
2019-03-11T17:07:49.721Z,21.50
2019-03-11T17:10:20.472Z,30.60
2019-03-11T17:12:48.874Z,33.70
2019-03-11T17:15:17.287Z,13.05
2019-03-11T17:17:45.744Z,16.85
2019-03-11T17:20:18.433Z,10.13
2019-03-11T17:22:46.825Z,18.02
2019-03-11T17:25:15.733Z,16.55
2019-03-11T17:27:44.167Z,11.22
2019-03-11T17:30:20.664Z,28.45
2019-03-11T17:32:50.701Z,13.45
2019-03-11T17:35:19.261Z,13.28
2019-03-11T17:37:47.798Z,13.62
2019-03-11T17:40:18.798Z,17.92
2019-03-11T17:42:47.249Z,17.45
2019-03-11T17:45:16.332Z,24.72
2019-03-11T17:47:44.901Z,13.75
2019-03-11T17:50:17.008Z,11.20
2019-03-11T17:52:45.631Z,12.55
2019-03-11T17:55:16.300Z,10.93
2019-03-11T17:57:44.882Z,12.33
2019-03-11T18:00:20.295Z,9.80
2019-03-11T18:02:48.684Z,15.48
2019-03-11T18:05:17.351Z,7.37
2019-03-11T18:07:46.098Z,6.58
2019-03-11T18:10:23.508Z,8.35
2019-03-11T18:12:51.450Z,8.50
2019-03-11T18:15:19.903Z,7.05
2019-03-11T18:17:48.317Z,6.28
2019-03-11T18:20:20.225Z,5.95
2019-03-11T18:22:48.686Z,13.85
2019-03-11T18:25:18.146Z,14.53
2019-03-11T18:27:46.735Z,14.80
2019-03-11T18:30:20.256Z,10.13
2019-03-11T18:32:48.638Z,7.35
2019-03-11T18:35:17.237Z,8.15
2019-03-11T18:37:45.847Z,15.10
2019-03-11T18:40:16.802Z,8.13
2019-03-11T18:42:45.196Z,6.47
2019-03-11T18:45:14.102Z,7.55
2019-03-11T18:47:42.581Z,9.85
2019-03-11T18:50:19.462Z,11.38
2019-03-11T18:52:47.962Z,7.22
2019-03-11T18:55:16.404Z,19.90
2019-03-11T18:57:44.953Z,32.03
2019-03-11T19:00:22.405Z,19.45
2019-03-11T19:02:51.052Z,17.05
2019-03-11T19:05:23.813Z,14.07
2019-03-11T19:07:54.903Z,8.68
2019-03-11T19:10:22.207Z,19.92
2019-03-11T19:12:50.839Z,12.75
2019-03-11T19:15:21.495Z,7.55
2019-03-11T19:17:49.915Z,14.15
2019-03-11T19:20:19.897Z,10.08
2019-03-11T19:22:48.356Z,9.63
2019-03-11T19:25:17.274Z,14.47
2019-03-11T19:27:45.811Z,11.18
2019-03-11T19:30:20.361Z,13.03
2019-03-11T19:32:48.912Z,7.10
2019-03-11T19:35:18.102Z,8.80
2019-03-11T19:37:46.592Z,9.98
2019-03-11T19:40:19.852Z,8.10
2019-03-11T19:42:48.269Z,11.20
2019-03-11T19:45:17.016Z,10.43
2019-03-11T19:47:45.574Z,17.23
2019-03-11T19:50:15.223Z,25.92
2019-03-11T19:52:43.693Z,29.87
2019-03-11T19:55:12.249Z,14.90
2019-03-11T19:57:40.655Z,13.75
2019-03-11T20:00:18.213Z,9.05
2019-03-11T20:02:46.605Z,7.70
2019-03-11T20:05:18.185Z,13.35
2019-03-11T20:07:46.665Z,13.50
2019-03-11T20:10:15.286Z,14.35
2019-03-11T20:12:44.050Z,6.03
2019-03-11T20:15:13.306Z,55.25
2019-03-11T20:17:41.937Z,23.62
2019-03-11T20:20:13.071Z,62.67
2019-03-11T20:22:41.526Z,53.95
2019-03-11T20:25:15.322Z,37.30
2019-03-11T20:27:43.988Z,20.50
2019-03-11T20:30:17.689Z,50.08
2019-03-11T20:32:46.145Z,11.68
2019-03-11T20:35:17.263Z,12.40
2019-03-11T20:37:45.009Z,12.70
2019-03-11T20:40:13.686Z,21.12
2019-03-11T20:42:42.111Z,11.68
2019-03-11T20:45:13.238Z,12.35
2019-03-11T20:47:42.653Z,7.83
2019-03-11T20:50:13.045Z,7.03
2019-03-11T20:52:41.467Z,12.75
2019-03-11T20:55:15.116Z,6.17
2019-03-11T20:57:43.549Z,17.67
2019-03-11T21:00:20.366Z,16.67
2019-03-11T21:02:49.000Z,6.97
2019-03-11T21:05:38.338Z,9.80
2019-03-11T21:08:06.877Z,16.95
2019-03-11T21:10:35.390Z,10.68
2019-03-11T21:13:04.042Z,15.08
2019-03-11T21:15:32.535Z,13.70
2019-03-11T21:18:01.040Z,8.80
2019-03-11T21:20:29.525Z,11.97
2019-03-11T21:22:57.873Z,11.70
2019-03-11T21:25:26.476Z,10.25
2019-03-11T21:27:54.855Z,9.23
2019-03-11T21:30:24.717Z,15.48
2019-03-11T21:32:53.250Z,13.58
2019-03-11T21:35:21.900Z,12.43
2019-03-11T21:37:50.577Z,10.00
2019-03-11T21:40:20.616Z,9.25
2019-03-11T21:42:49.170Z,10.65
2019-03-11T21:45:17.994Z,11.22
2019-03-11T21:47:46.600Z,10.40
2019-03-11T21:50:17.588Z,9.98
2019-03-11T21:52:46.040Z,9.08
2019-03-11T21:55:14.435Z,12.70
2019-03-11T21:57:42.926Z,12.30
2019-03-11T22:00:28.402Z,13.20
2019-03-11T22:02:48.190Z,13.55
2019-03-11T22:05:16.680Z,17.45
2019-03-11T22:07:45.049Z,16.40
2019-03-11T22:10:17.423Z,15.43
2019-03-11T22:15:16.053Z,13.50
2019-03-11T22:17:44.516Z,12.35
2019-03-11T22:20:16.748Z,16.77
2019-03-11T22:22:45.140Z,16.82
2019-03-11T22:25:18.277Z,13.38
2019-03-11T22:27:46.698Z,17.67
2019-03-11T22:30:22.232Z,19.77
2019-03-11T22:32:50.653Z,12.33
2019-03-11T22:35:19.072Z,9.63
2019-03-11T22:37:47.508Z,14.20
2019-03-11T22:40:17.176Z,11.88
2019-03-11T22:42:45.789Z,12.37
2019-03-11T22:45:17.612Z,10.90
2019-03-11T22:47:46.085Z,12.13
2019-03-11T22:50:17.631Z,10.60
2019-03-11T22:52:44.611Z,11.90
2019-03-11T22:55:13.200Z,12.35
2019-03-11T22:57:41.580Z,13.60
2019-03-11T23:00:15.890Z,16.67
2019-03-11T23:02:44.410Z,17.12
2019-03-11T23:05:12.794Z,16.00
2019-03-11T23:07:41.332Z,18.65
2019-03-11T23:10:09.735Z,13.13
2019-03-11T23:12:38.218Z,15.75
2019-03-11T23:15:07.919Z,10.95
2019-03-11T23:17:36.295Z,9.85
2019-03-11T23:20:06.770Z,13.08
2019-03-11T23:22:35.611Z,8.30
2019-03-11T23:25:05.853Z,11.15
2019-03-11T23:27:35.402Z,10.65
2019-03-11T23:30:06.648Z,11.12
2019-03-11T23:32:35.023Z,10.35
2019-03-11T23:35:03.841Z,8.83
2019-03-11T23:37:32.233Z,7.10
2019-03-11T23:40:00.898Z,6.85
2019-03-11T23:42:29.431Z,19.45
2019-03-11T23:44:57.841Z,8.85
2019-03-11T23:47:26.276Z,7.80
2019-03-11T23:49:54.734Z,11.38
2019-03-11T23:52:23.158Z,11.33
2019-03-11T23:54:51.595Z,8.78
2019-03-11T23:57:20.030Z,6.92
2019-03-11T23:59:48.446Z,10.48
